createdAt,value
2022-11-07T00:01:47.438Z,98.10
2022-11-07T00:04:14.856Z,98.20
2022-11-07T00:06:42.203Z,98.20
2022-11-07T00:09:09.137Z,98.20
2022-11-07T00:11:36.036Z,98.10
2022-11-07T00:14:02.931Z,98.20
2022-11-07T00:16:30.552Z,98.20
2022-11-07T00:18:57.417Z,98.00
2022-11-07T00:21:24.540Z,98.00
2022-11-07T00:23:51.437Z,98.00
2022-11-07T00:26:18.364Z,98.00
2022-11-07T00:28:46.508Z,97.90
2022-11-07T00:31:15.953Z,98.10
2022-11-07T00:33:44.403Z,98.10
2022-11-07T00:36:21.289Z,98.10
2022-11-07T00:38:48.361Z,98.10
2022-11-07T00:41:16.172Z,98.20
2022-11-07T00:43:43.170Z,98.20
2022-11-07T00:46:12.336Z,98.20
2022-11-07T00:48:39.313Z,98.50
2022-11-07T00:51:27.487Z,98.30
2022-11-07T00:53:54.771Z,98.20
2022-11-07T00:56:25.462Z,98.20
2022-11-07T00:58:58.306Z,98.30
2022-11-07T01:01:29.610Z,98.40
2022-11-07T01:04:15.180Z,98.40
2022-11-07T01:06:45.009Z,98.60
2022-11-07T01:09:17.450Z,98.70
2022-11-07T01:11:45.320Z,98.80
2022-11-07T01:14:16.802Z,98.70
2022-11-07T01:16:44.382Z,98.60
2022-11-07T01:19:11.954Z,98.70
2022-11-07T01:21:40.864Z,98.70
2022-11-07T01:24:11.390Z,98.80
2022-11-07T01:26:40.904Z,98.90
2022-11-07T01:29:08.041Z,99.00
2022-11-07T01:31:35.919Z,99.00
2022-11-07T01:34:03.140Z,99.00
2022-11-07T01:36:30.282Z,99.00
2022-11-07T01:38:57.227Z,99.00
2022-11-07T01:41:29.024Z,98.90
2022-11-07T01:44:21.784Z,98.90
2022-11-07T01:46:50.089Z,98.80
2022-11-07T01:49:40.577Z,98.90
2022-11-07T01:52:34.935Z,99.10
2022-11-07T01:55:10.506Z,99.10
2022-11-07T01:57:44.914Z,99.20
2022-11-07T02:00:16.491Z,99.20
2022-11-07T02:02:49.212Z,99.20
2022-11-07T02:05:31.382Z,99.30
2022-11-07T02:08:00.806Z,99.40
2022-11-07T02:10:28.547Z,99.40
2022-11-07T02:12:58.845Z,99.50
2022-11-07T02:15:26.637Z,99.50
2022-11-07T02:17:55.293Z,99.80
2022-11-07T02:20:22.269Z,99.70
2022-11-07T02:23:06.881Z,99.70
2022-11-07T02:25:34.068Z,99.70
2022-11-07T02:28:07.214Z,99.70
2022-11-07T02:30:34.711Z,99.90
2022-11-07T02:33:03.096Z,99.90
2022-11-07T02:35:46.083Z,99.90
2022-11-07T02:38:26.475Z,99.90
2022-11-07T02:41:03.720Z,99.90
2022-11-07T02:43:34.829Z,99.90
2022-11-07T02:46:08.456Z,99.90
2022-11-07T02:48:45.154Z,99.90
2022-11-07T02:51:12.047Z,99.90
2022-11-07T02:53:39.287Z,99.90
2022-11-07T02:56:06.976Z,99.90
2022-11-07T02:58:34.189Z,99.90
2022-11-07T03:01:02.997Z,99.90
2022-11-07T03:03:30.667Z,99.90
2022-11-07T03:05:57.592Z,99.90
2022-11-07T03:08:24.458Z,99.90
2022-11-07T03:10:51.310Z,99.90
2022-11-07T03:13:18.171Z,99.90
2022-11-07T03:15:45.052Z,99.90
2022-11-07T03:18:11.939Z,99.90
2022-11-07T03:20:38.959Z,99.90
2022-11-07T03:23:05.996Z,99.90
2022-11-07T03:25:33.103Z,99.90
2022-11-07T03:28:00.031Z,99.90
2022-11-07T03:30:26.967Z,99.90
2022-11-07T03:32:54.707Z,99.90
2022-11-07T03:35:22.675Z,99.90
2022-11-07T03:37:50.231Z,99.90
2022-11-07T03:40:17.935Z,99.90
2022-11-07T03:42:46.056Z,99.90
2022-11-07T03:45:15.493Z,99.90
2022-11-07T03:47:44.461Z,99.90
2022-11-07T03:50:17.202Z,99.90
2022-11-07T03:52:44.611Z,99.90
2022-11-07T03:55:12.480Z,99.90
2022-11-07T03:57:39.386Z,99.90
2022-11-07T04:00:07.668Z,99.90
2022-11-07T04:02:39.506Z,99.90
2022-11-07T04:05:07.541Z,99.90
2022-11-07T04:07:34.485Z,99.90
2022-11-07T04:10:01.531Z,99.90
2022-11-07T04:12:47.069Z,99.90
2022-11-07T04:15:32.515Z,99.90
2022-11-07T04:18:00.532Z,99.90
2022-11-07T04:20:28.351Z,99.90
2022-11-07T04:22:55.327Z,99.90
2022-11-07T04:25:42.243Z,99.90
2022-11-07T04:28:09.121Z,99.90
2022-11-07T04:30:36.009Z,99.90
2022-11-07T04:33:03.453Z,99.90
2022-11-07T04:35:33.200Z,99.90
2022-11-07T04:38:01.174Z,99.90
2022-11-07T04:40:30.028Z,99.90
2022-11-07T04:42:57.463Z,99.90
2022-11-07T04:45:24.545Z,99.90
2022-11-07T04:47:51.784Z,99.90
2022-11-07T04:50:20.252Z,99.90
2022-11-07T04:52:48.187Z,99.90
2022-11-07T04:55:22.815Z,99.90
2022-11-07T04:57:49.987Z,99.90
2022-11-07T05:00:19.497Z,99.90
2022-11-07T05:02:47.879Z,99.90
2022-11-07T05:05:15.694Z,99.90
2022-11-07T05:07:43.464Z,99.90
2022-11-07T05:10:26.709Z,99.90
2022-11-07T05:12:54.673Z,99.90
2022-11-07T05:15:21.974Z,99.90
2022-11-07T05:17:49.539Z,99.90
2022-11-07T05:20:38.738Z,99.90
2022-11-07T05:23:13.910Z,99.90
2022-11-07T05:25:46.171Z,99.90
2022-11-07T05:28:39.500Z,99.90
2022-11-07T05:31:08.767Z,99.90
2022-11-07T05:33:36.429Z,99.90
2022-11-07T05:36:20.273Z,99.90
2022-11-07T05:38:53.298Z,99.90
2022-11-07T05:41:22.226Z,99.90
2022-11-07T05:43:49.233Z,99.90
2022-11-07T05:46:16.117Z,99.90
2022-11-07T05:48:51.000Z,99.90
2022-11-07T05:51:17.881Z,99.90
2022-11-07T05:53:44.885Z,99.90
2022-11-07T05:56:11.856Z,99.90
2022-11-07T05:58:39.189Z,99.90
2022-11-07T06:01:07.272Z,99.90
2022-11-07T06:03:35.159Z,99.90
2022-11-07T06:06:02.491Z,99.90
2022-11-07T06:08:29.479Z,99.90
2022-11-07T06:10:56.482Z,99.90
2022-11-07T06:13:23.653Z,99.90
2022-11-07T06:15:50.664Z,99.90
2022-11-07T06:18:21.112Z,99.90
2022-11-07T06:20:48.388Z,99.90
2022-11-07T06:23:16.319Z,99.90
2022-11-07T06:25:43.666Z,99.90
2022-11-07T06:28:13.974Z,99.90
2022-11-07T06:30:42.976Z,99.90
2022-11-07T06:33:19.144Z,99.90
2022-11-07T06:35:47.196Z,99.90
2022-11-07T06:38:15.482Z,99.90
2022-11-07T06:40:43.626Z,99.90
2022-11-07T06:43:18.022Z,99.90
2022-11-07T06:45:47.084Z,99.70
2022-11-07T06:48:15.256Z,99.50
2022-11-07T06:50:42.280Z,99.40
2022-11-07T06:53:13.303Z,99.40
2022-11-07T06:55:41.350Z,99.30
2022-11-07T06:58:08.434Z,99.20
2022-11-07T07:00:37.348Z,99.00
2022-11-07T07:03:04.885Z,99.00
2022-11-07T07:05:34.299Z,99.00
2022-11-07T07:08:01.987Z,99.00
2022-11-07T07:10:28.943Z,99.00
2022-11-07T07:12:56.764Z,99.00
2022-11-07T07:15:23.928Z,99.00
2022-11-07T07:17:50.813Z,99.00
2022-11-07T07:20:17.907Z,98.90
2022-11-07T07:22:46.720Z,99.20
2022-11-07T07:25:15.159Z,98.90
2022-11-07T07:27:43.177Z,98.90
2022-11-07T07:30:11.163Z,98.90
2022-11-07T07:32:38.574Z,98.90
2022-11-07T07:35:06.932Z,98.90
2022-11-07T07:37:34.227Z,99.10
2022-11-07T07:40:01.148Z,98.70
2022-11-07T07:42:28.194Z,98.60
2022-11-07T07:44:55.056Z,98.60
2022-11-07T07:47:22.047Z,98.50
2022-11-07T07:49:48.979Z,98.40
2022-11-07T07:52:15.924Z,98.30
2022-11-07T07:54:43.168Z,98.10
2022-11-07T07:57:10.121Z,98.00
2022-11-07T07:59:37.311Z,98.00
2022-11-07T08:02:04.271Z,97.90
2022-11-07T08:04:31.414Z,97.70
2022-11-07T08:06:58.482Z,97.60
2022-11-07T08:09:25.396Z,97.50
2022-11-07T08:12:00.403Z,97.50
2022-11-07T08:14:27.252Z,97.40
2022-11-07T08:16:54.073Z,97.50
2022-11-07T08:19:21.052Z,97.40
2022-11-07T08:21:47.982Z,97.50
2022-11-07T08:24:14.959Z,97.50
2022-11-07T08:26:41.863Z,97.40
2022-11-07T08:29:08.810Z,97.40
2022-11-07T08:31:36.405Z,97.40
2022-11-07T08:34:03.654Z,97.40
2022-11-07T08:36:30.611Z,97.40
2022-11-07T08:42:05.821Z,97.40
2022-11-07T08:44:34.907Z,97.50
2022-11-07T08:47:08.404Z,97.50
2022-11-07T08:49:35.545Z,97.30
2022-11-07T08:52:02.494Z,97.40
2022-11-07T08:54:30.098Z,97.40
2022-11-07T08:56:57.340Z,97.50
2022-11-07T08:59:24.266Z,97.50
2022-11-07T09:02:26.656Z,97.50
2022-11-07T09:04:38.350Z,97.50
2022-11-07T09:07:05.584Z,97.60
2022-11-07T09:09:33.683Z,97.50
2022-11-07T09:12:00.631Z,97.50
2022-11-07T09:14:27.602Z,97.50
2022-11-07T09:16:54.562Z,97.40
2022-11-07T09:19:21.529Z,97.30
2022-11-07T09:21:49.129Z,97.00
2022-11-07T09:24:16.017Z,97.00
2022-11-07T09:26:42.997Z,97.00
2022-11-07T09:29:10.158Z,97.00
2022-11-07T09:31:37.078Z,96.90
2022-11-07T09:34:04.298Z,96.80
2022-11-07T09:36:31.293Z,96.70
2022-11-07T09:38:59.580Z,96.60
2022-11-07T09:41:56.604Z,96.50
2022-11-07T09:44:53.399Z,96.60
2022-11-07T09:47:57.123Z,96.70
2022-11-07T09:50:38.599Z,96.80
2022-11-07T09:53:23.494Z,96.80
2022-11-07T09:56:01.598Z,97.00
2022-11-07T09:58:37.792Z,97.20
2022-11-07T10:01:11.534Z,97.40
2022-11-07T10:03:43.181Z,97.60
2022-11-07T10:06:31.476Z,97.80
2022-11-07T10:09:34.671Z,98.20
2022-11-07T10:13:01.025Z,98.60
2022-11-07T10:16:01.286Z,98.70
2022-11-07T10:19:12.537Z,98.80
2022-11-07T10:22:05.061Z,98.90
2022-11-07T10:25:04.497Z,99.20
2022-11-07T10:27:33.032Z,99.60
2022-11-07T10:30:01.819Z,99.90
2022-11-07T10:33:15.227Z,99.90
2022-11-07T10:35:50.971Z,99.80
2022-11-07T10:38:30.189Z,99.70
2022-11-07T10:40:57.474Z,99.70
2022-11-07T10:43:34.549Z,99.50
2022-11-07T10:46:15.460Z,99.20
2022-11-07T10:48:58.931Z,99.20
2022-11-07T10:51:43.027Z,99.20
2022-11-07T10:54:31.212Z,99.10
2022-11-07T10:57:19.256Z,99.10
2022-11-07T10:59:53.673Z,99.00
2022-11-07T11:02:41.063Z,99.10
2022-11-07T11:05:31.094Z,99.00
2022-11-07T11:08:20.063Z,98.90
2022-11-07T11:10:49.195Z,98.50
2022-11-07T11:13:32.094Z,98.30
2022-11-07T11:16:32.776Z,98.10
2022-11-07T11:19:02.561Z,98.20
2022-11-07T11:21:47.624Z,97.90
2022-11-07T11:24:30.011Z,97.90
2022-11-07T11:27:09.165Z,97.90
2022-11-07T11:29:50.635Z,97.80
2022-11-07T11:32:31.777Z,97.80
2022-11-07T11:35:38.849Z,97.60
2022-11-07T11:38:25.586Z,97.60
2022-11-07T11:41:24.108Z,97.20
2022-11-07T11:44:28.840Z,96.90
2022-11-07T11:47:11.314Z,96.60
2022-11-07T11:50:00.713Z,96.60
2022-11-07T11:52:32.022Z,96.20
2022-11-07T11:55:01.478Z,95.70
2022-11-07T11:57:56.849Z,95.50
2022-11-07T12:00:25.065Z,95.00
2022-11-07T12:03:39.430Z,94.70
2022-11-07T12:06:33.166Z,94.60
2022-11-07T12:09:33.069Z,94.20
2022-11-07T12:12:39.418Z,93.80
2022-11-07T12:15:33.850Z,93.90
2022-11-07T12:18:54.359Z,93.80
2022-11-07T12:21:38.032Z,94.40
2022-11-07T12:24:31.592Z,94.60
2022-11-07T12:27:25.684Z,94.60
2022-11-07T12:30:04.731Z,94.90
2022-11-07T12:32:46.687Z,94.90
2022-11-07T12:36:03.156Z,94.70
2022-11-07T12:38:54.018Z,94.80
2022-11-07T12:41:34.823Z,95.00
2022-11-07T12:44:19.675Z,94.90
2022-11-07T12:46:58.506Z,94.80
2022-11-07T12:49:48.274Z,94.80
2022-11-07T12:52:43.950Z,95.00
2022-11-07T12:55:44.866Z,95.10
2022-11-07T12:58:25.634Z,95.00
2022-11-07T13:00:54.136Z,94.80
2022-11-07T13:03:53.477Z,94.70
2022-11-07T13:06:46.276Z,94.70
2022-11-07T13:09:44.583Z,94.70
2022-11-07T13:12:39.218Z,94.60
2022-11-07T13:15:11.360Z,94.70
2022-11-07T13:17:46.055Z,94.50
2022-11-07T13:20:22.075Z,94.60
2022-11-07T13:22:51.701Z,94.80
2022-11-07T13:25:18.626Z,94.70
2022-11-07T13:28:04.060Z,94.70
2022-11-07T13:30:30.875Z,94.70
2022-11-07T13:32:59.533Z,94.70
2022-11-07T13:35:33.294Z,94.60
2022-11-07T13:38:11.797Z,94.60
2022-11-07T13:41:03.781Z,94.60
2022-11-07T13:43:56.218Z,94.60
2022-11-07T13:46:59.352Z,94.50
2022-11-07T13:49:32.420Z,94.40
2022-11-07T13:52:24.943Z,94.30
2022-11-07T13:55:04.742Z,94.20
2022-11-07T13:57:40.913Z,94.00
2022-11-07T14:00:16.025Z,93.70
2022-11-07T14:02:58.046Z,93.60
2022-11-07T14:05:36.247Z,93.60
2022-11-07T14:08:06.188Z,93.70
2022-11-07T14:10:47.920Z,94.00
2022-11-07T14:13:41.239Z,94.00
2022-11-07T14:16:24.556Z,94.00
2022-11-07T14:19:26.597Z,93.80
2022-11-07T14:21:55.962Z,93.80
2022-11-07T14:24:32.590Z,93.80
2022-11-07T14:27:07.343Z,94.00
2022-11-07T14:29:34.821Z,94.10
2022-11-07T14:32:05.998Z,94.00
2022-11-07T14:34:36.262Z,94.10
2022-11-07T14:37:08.236Z,94.10
2022-11-07T14:39:38.971Z,94.10
2022-11-07T14:42:06.220Z,94.20
2022-11-07T14:44:54.490Z,94.40
2022-11-07T14:47:28.254Z,94.50
2022-11-07T14:49:56.789Z,94.50
2022-11-07T14:52:41.628Z,94.40
2022-11-07T14:55:44.630Z,94.50
2022-11-07T14:58:13.108Z,94.50
2022-11-07T15:00:51.607Z,94.60
2022-11-07T15:03:23.827Z,94.60
2022-11-07T15:05:50.812Z,94.50
2022-11-07T15:08:36.814Z,94.50
2022-11-07T15:11:16.068Z,94.60
2022-11-07T15:13:47.020Z,94.50
2022-11-07T15:16:19.461Z,94.50
2022-11-07T15:19:00.030Z,94.50
2022-11-07T15:21:33.595Z,94.60
2022-11-07T15:24:30.915Z,94.60
2022-11-07T15:27:02.111Z,94.70
2022-11-07T15:29:36.139Z,94.70
2022-11-07T15:32:17.052Z,94.70
2022-11-07T15:37:31.377Z,94.80
2022-11-07T15:39:58.410Z,94.90
2022-11-07T15:42:25.376Z,95.00
2022-11-07T15:44:53.062Z,95.00
2022-11-07T15:47:22.723Z,95.10
2022-11-07T15:49:53.184Z,95.10
2022-11-07T15:52:20.755Z,95.10
2022-11-07T15:54:47.813Z,95.20
2022-11-07T15:57:15.374Z,95.40
2022-11-07T15:59:43.825Z,95.20
2022-11-07T16:02:17.879Z,95.30
2022-11-07T16:04:45.134Z,95.30
2022-11-07T16:07:18.648Z,95.40
2022-11-07T16:09:48.722Z,95.40
2022-11-07T16:12:20.204Z,95.50
2022-11-07T16:14:47.380Z,95.50
2022-11-07T16:17:19.403Z,95.50
2022-11-07T16:22:35.751Z,95.70
2022-11-07T16:25:14.039Z,95.70
2022-11-07T16:28:04.532Z,95.70
2022-11-07T16:30:47.639Z,95.70
2022-11-07T16:33:16.488Z,95.70
2022-11-07T16:35:52.627Z,95.70
2022-11-07T16:38:32.554Z,95.70
2022-11-07T16:41:09.761Z,95.70
2022-11-07T16:43:48.397Z,95.80
2022-11-07T16:46:36.432Z,95.80
2022-11-07T16:49:41.438Z,95.80
2022-11-07T16:52:19.963Z,95.70
2022-11-07T16:54:46.891Z,95.70
2022-11-07T16:57:17.054Z,95.70
2022-11-07T16:59:46.641Z,95.70
2022-11-07T17:02:27.019Z,95.70
2022-11-07T17:04:54.949Z,95.70
2022-11-07T17:07:24.386Z,95.80
2022-11-07T17:09:57.683Z,95.80
2022-11-07T17:12:29.641Z,95.70
2022-11-07T17:15:04.201Z,95.70
2022-11-07T17:17:36.972Z,95.70
2022-11-07T17:20:23.268Z,95.70
2022-11-07T17:23:05.719Z,95.70
2022-11-07T17:25:46.693Z,95.70
2022-11-07T17:29:34.599Z,95.60
2022-11-07T17:45:52.193Z,95.50
2022-11-07T18:05:52.850Z,95.50
2022-11-07T18:09:14.031Z,95.50
2022-11-07T18:12:04.368Z,95.40
2022-11-07T18:22:40.790Z,95.40
2022-11-07T18:30:51.617Z,95.50
2022-11-07T18:34:31.895Z,95.60
2022-11-07T18:39:03.825Z,95.60
2022-11-07T20:37:23.312Z,96.60
2022-11-07T20:40:42.548Z,96.60
2022-11-07T20:43:55.572Z,96.60
2022-11-07T20:46:46.991Z,96.70
2022-11-07T20:56:03.840Z,96.90
2022-11-07T21:01:48.491Z,96.90
2022-11-07T21:04:23.552Z,96.90
2022-11-07T21:07:52.201Z,96.70
2022-11-07T21:10:25.957Z,96.70
2022-11-07T21:17:29.526Z,96.60
2022-11-07T21:19:57.547Z,96.90
2022-11-07T21:22:29.698Z,97.00
2022-11-07T21:24:57.296Z,97.00
2022-11-07T21:27:25.267Z,97.10
2022-11-07T21:29:52.858Z,97.30
2022-11-07T21:32:19.759Z,97.40
2022-11-07T21:34:47.219Z,97.40
2022-11-07T21:37:14.313Z,97.40
2022-11-07T21:39:42.419Z,97.50
2022-11-07T21:42:42.373Z,97.70
2022-11-07T21:45:10.372Z,97.70
2022-11-07T21:47:38.866Z,97.80
2022-11-07T21:50:30.702Z,97.90
2022-11-07T21:52:57.811Z,97.90
2022-11-07T21:55:25.877Z,98.00
2022-11-07T21:57:53.645Z,98.00
2022-11-07T22:00:21.863Z,98.00
2022-11-07T22:02:49.623Z,97.90
2022-11-07T22:05:17.604Z,98.00
2022-11-07T22:07:44.901Z,98.00
2022-11-07T22:10:12.717Z,98.00
2022-11-07T22:12:39.989Z,98.00
2022-11-07T22:15:07.818Z,98.00
2022-11-07T22:17:34.740Z,98.00
2022-11-07T22:20:02.326Z,98.00
2022-11-07T22:22:30.024Z,98.00
2022-11-07T22:24:58.146Z,98.00
2022-11-07T22:27:25.368Z,98.00
2022-11-07T22:29:52.219Z,98.10
2022-11-07T22:32:19.588Z,98.10
2022-11-07T22:34:46.882Z,98.30
2022-11-07T22:37:14.239Z,98.00
2022-11-07T22:39:42.226Z,97.90
2022-11-07T22:42:09.852Z,98.00
2022-11-07T22:44:36.989Z,98.00
2022-11-07T22:47:05.789Z,98.10
2022-11-07T22:49:32.753Z,98.10
2022-11-07T22:52:00.089Z,98.10
2022-11-07T22:54:27.663Z,98.10
2022-11-07T22:56:55.676Z,98.30
2022-11-07T22:59:23.009Z,98.30
2022-11-07T23:01:50.140Z,98.40
2022-11-07T23:04:18.129Z,98.50
2022-11-07T23:06:46.029Z,98.50
2022-11-07T23:09:16.001Z,98.70
2022-11-07T23:11:46.366Z,98.80
2022-11-07T23:14:18.548Z,98.90
2022-11-07T23:16:53.233Z,98.90
2022-11-07T23:19:24.536Z,99.00
2022-11-07T23:21:54.793Z,99.00
2022-11-07T23:24:22.609Z,99.10
2022-11-07T23:26:50.495Z,99.10
2022-11-07T23:29:21.456Z,99.20
2022-11-07T23:31:51.458Z,99.30
2022-11-07T23:34:21.311Z,99.30
2022-11-07T23:36:52.229Z,99.30
2022-11-07T23:39:22.778Z,99.40
2022-11-07T23:41:49.772Z,99.50
2022-11-07T23:44:17.487Z,99.60
2022-11-07T23:47:04.068Z,99.70
2022-11-07T23:49:50.088Z,99.70
2022-11-07T23:52:17.880Z,99.80
2022-11-07T23:55:03.720Z,99.80
2022-11-07T23:57:55.015Z,99.90
